sensor_id;sensor_type;location;lat;lon;timestamp;pressure;altitude;pressure_sealevel;temperature;humidity
31299;BME280;17927;52.350;13.402;2023-05-03T00:02:01;102276.66;;;13.90;39.78
31299;BME280;17927;52.350;13.402;2023-05-03T00:04:26;102273.06;;;13.90;39.49
31299;BME280;17927;52.350;13.402;2023-05-03T00:06:52;102273.22;;;13.88;39.83
31299;BME280;17927;52.350;13.402;2023-05-03T00:09:17;102278.66;;;13.88;39.73
31299;BME280;17927;52.350;13.402;2023-05-03T00:11:43;102270.50;;;13.88;39.95
31299;BME280;17927;52.350;13.402;2023-05-03T00:14:08;102267.88;;;13.86;39.78
31299;BME280;17927;52.350;13.402;2023-05-03T00:16:33;102272.47;;;13.86;39.84
31299;BME280;17927;52.350;13.402;2023-05-03T00:18:59;102265.31;;;13.85;39.99
31299;BME280;17927;52.350;13.402;2023-05-03T00:21:24;102270.88;;;13.83;39.80
31299;BME280;17927;52.350;13.402;2023-05-03T00:23:51;102264.56;;;13.83;39.95
31299;BME280;17927;52.350;13.402;2023-05-03T00:26:16;102270.16;;;13.81;40.08
31299;BME280;17927;52.350;13.402;2023-05-03T00:28:41;102264.09;;;13.78;39.99
31299;BME280;17927;52.350;13.402;2023-05-03T00:31:10;102280.50;;;13.76;39.83
31299;BME280;17927;52.350;13.402;2023-05-03T00:33:38;102278.94;;;13.74;39.67
31299;BME280;17927;52.350;13.402;2023-05-03T00:36:12;102279.31;;;13.69;39.91
31299;BME280;17927;52.350;13.402;2023-05-03T00:38:39;102275.13;;;13.65;40.05
31299;BME280;17927;52.350;13.402;2023-05-03T00:41:05;102273.53;;;13.62;39.84
31299;BME280;17927;52.350;13.402;2023-05-03T00:43:31;102277.34;;;13.60;40.05
31299;BME280;17927;52.350;13.402;2023-05-03T00:45:58;102272.28;;;13.55;40.19
31299;BME280;17927;52.350;13.402;2023-05-03T00:48:23;102272.66;;;13.50;40.26
31299;BME280;17927;52.350;13.402;2023-05-03T00:50:49;102276.84;;;13.43;40.40
31299;BME280;17927;52.350;13.402;2023-05-03T00:53:14;102270.03;;;13.37;40.16
31299;BME280;17927;52.350;13.402;2023-05-03T00:55:41;102270.44;;;13.33;39.71
31299;BME280;17927;52.350;13.402;2023-05-03T00:58:07;102275.50;;;13.26;40.11
31299;BME280;17927;52.350;13.402;2023-05-03T01:00:32;102269.69;;;13.19;39.68
31299;BME280;17927;52.350;13.402;2023-05-03T01:02:57;102274.00;;;13.10;39.79
31299;BME280;17927;52.350;13.402;2023-05-03T01:05:25;102264.38;;;13.06;39.71
31299;BME280;17927;52.350;13.402;2023-05-03T01:08:08;102261.28;;;13.00;39.82
31299;BME280;17927;52.350;13.402;2023-05-03T01:10:47;102268.06;;;12.94;39.99
31299;BME280;17927;52.350;13.402;2023-05-03T01:14:02;102271.25;;;12.88;39.99
31299;BME280;17927;52.350;13.402;2023-05-03T01:16:42;102270.25;;;12.77;39.72
31299;BME280;17927;52.350;13.402;2023-05-03T01:19:44;102276.28;;;12.70;39.97
31299;BME280;17927;52.350;13.402;2023-05-03T01:25:11;102272.59;;;12.59;39.83
31299;BME280;17927;52.350;13.402;2023-05-03T01:27:37;102265.66;;;12.55;39.99
31299;BME280;17927;52.350;13.402;2023-05-03T01:30:10;102270.47;;;12.52;40.16
31299;BME280;17927;52.350;13.402;2023-05-03T01:32:48;102276.13;;;12.48;39.93
31299;BME280;17927;52.350;13.402;2023-05-03T01:35:28;102276.47;;;12.44;39.98
31299;BME280;17927;52.350;13.402;2023-05-03T01:37:56;102280.50;;;12.38;40.17
31299;BME280;17927;52.350;13.402;2023-05-03T01:40:22;102280.75;;;12.35;40.16
31299;BME280;17927;52.350;13.402;2023-05-03T01:42:49;102280.97;;;12.32;40.10
31299;BME280;17927;52.350;13.402;2023-05-03T01:45:14;102278.63;;;12.27;40.10
31299;BME280;17927;52.350;13.402;2023-05-03T01:47:40;102280.69;;;12.24;40.31
31299;BME280;17927;52.350;13.402;2023-05-03T01:50:05;102277.59;;;12.17;40.12
31299;BME280;17927;52.350;13.402;2023-05-03T01:52:31;102283.34;;;12.12;40.28
31299;BME280;17927;52.350;13.402;2023-05-03T01:54:56;102282.81;;;12.07;40.43
31299;BME280;17927;52.350;13.402;2023-05-03T01:57:21;102283.19;;;12.02;40.67
31299;BME280;17927;52.350;13.402;2023-05-03T01:59:47;102286.34;;;11.96;40.78
31299;BME280;17927;52.350;13.402;2023-05-03T02:02:12;102274.00;;;11.92;40.85
31299;BME280;17927;52.350;13.402;2023-05-03T02:04:37;102278.03;;;11.86;40.50
31299;BME280;17927;52.350;13.402;2023-05-03T02:07:02;102282.91;;;11.81;40.50
31299;BME280;17927;52.350;13.402;2023-05-03T02:09:28;102275.25;;;11.75;40.57
31299;BME280;17927;52.350;13.402;2023-05-03T02:11:53;102286.41;;;11.70;40.72
31299;BME280;17927;52.350;13.402;2023-05-03T02:14:18;102275.16;;;11.64;40.71
31299;BME280;17927;52.350;13.402;2023-05-03T02:16:43;102278.22;;;11.59;40.88
31299;BME280;17927;52.350;13.402;2023-05-03T02:19:09;102284.94;;;11.53;40.85
31299;BME280;17927;52.350;13.402;2023-05-03T02:21:36;102283.44;;;11.49;41.25
31299;BME280;17927;52.350;13.402;2023-05-03T02:24:01;102284.63;;;11.45;40.81
31299;BME280;17927;52.350;13.402;2023-05-03T02:26:27;102287.66;;;11.40;41.36
31299;BME280;17927;52.350;13.402;2023-05-03T02:28:53;102298.84;;;11.36;41.07
31299;BME280;17927;52.350;13.402;2023-05-03T02:31:20;102291.06;;;11.31;41.50
31299;BME280;17927;52.350;13.402;2023-05-03T02:33:45;102290.41;;;11.27;41.46
31299;BME280;17927;52.350;13.402;2023-05-03T02:36:10;102298.75;;;11.24;41.62
31299;BME280;17927;52.350;13.402;2023-05-03T02:38:35;102296.25;;;11.21;41.57
31299;BME280;17927;52.350;13.402;2023-05-03T02:41:01;102296.59;;;11.17;41.58
31299;BME280;17927;52.350;13.402;2023-05-03T02:43:26;102305.75;;;11.14;41.16
31299;BME280;17927;52.350;13.402;2023-05-03T02:45:51;102307.84;;;11.10;41.38
31299;BME280;17927;52.350;13.402;2023-05-03T02:48:16;102296.38;;;11.07;41.52
31299;BME280;17927;52.350;13.402;2023-05-03T02:50:42;102306.63;;;11.02;41.85
31299;BME280;17927;52.350;13.402;2023-05-03T02:53:07;102308.59;;;11.00;41.84
31299;BME280;17927;52.350;13.402;2023-05-03T02:55:33;102311.53;;;10.96;42.08
31299;BME280;17927;52.350;13.402;2023-05-03T02:57:58;102310.75;;;10.94;42.08
31299;BME280;17927;52.350;13.402;2023-05-03T03:00:23;102308.16;;;10.93;42.22
31299;BME280;17927;52.350;13.402;2023-05-03T03:02:49;102317.47;;;10.89;42.17
31299;BME280;17927;52.350;13.402;2023-05-03T03:05:14;102311.38;;;10.85;42.30
31299;BME280;17927;52.350;13.402;2023-05-03T03:07:40;102311.63;;;10.82;42.42
31299;BME280;17927;52.350;13.402;2023-05-03T03:10:06;102315.28;;;10.81;42.46
31299;BME280;17927;52.350;13.402;2023-05-03T03:12:34;102321.88;;;10.77;42.18
31299;BME280;17927;52.350;13.402;2023-05-03T03:14:59;102320.25;;;10.74;42.38
31299;BME280;17927;52.350;13.402;2023-05-03T03:17:25;102320.47;;;10.71;42.57
31299;BME280;17927;52.350;13.402;2023-05-03T03:19:50;102319.78;;;10.68;42.59
31299;BME280;17927;52.350;13.402;2023-05-03T03:22:16;102320.88;;;10.65;42.46
31299;BME280;17927;52.350;13.402;2023-05-03T03:24:41;102329.19;;;10.62;42.39
31299;BME280;17927;52.350;13.402;2023-05-03T03:27:06;102333.09;;;10.58;42.59
31299;BME280;17927;52.350;13.402;2023-05-03T03:29:32;102332.41;;;10.54;42.75
31299;BME280;17927;52.350;13.402;2023-05-03T03:31:58;102336.19;;;10.51;42.31
31299;BME280;17927;52.350;13.402;2023-05-03T03:34:23;102339.22;;;10.47;42.49
31299;BME280;17927;52.350;13.402;2023-05-03T03:36:48;102333.25;;;10.42;42.60
31299;BME280;17927;52.350;13.402;2023-05-03T03:39:14;102339.78;;;10.38;42.86
31299;BME280;17927;52.350;13.402;2023-05-03T03:41:39;102338.28;;;10.33;42.58
31299;BME280;17927;52.350;13.402;2023-05-03T03:44:04;102345.72;;;10.30;42.78
31299;BME280;17927;52.350;13.402;2023-05-03T03:46:29;102340.53;;;10.27;42.94
31299;BME280;17927;52.350;13.402;2023-05-03T03:48:55;102344.28;;;10.24;42.74
31299;BME280;17927;52.350;13.402;2023-05-03T03:51:20;102347.19;;;10.21;43.07
31299;BME280;17927;52.350;13.402;2023-05-03T03:53:45;102348.25;;;10.18;43.00
31299;BME280;17927;52.350;13.402;2023-05-03T03:56:11;102348.38;;;10.17;43.20
31299;BME280;17927;52.350;13.402;2023-05-03T03:58:36;102352.91;;;10.16;43.14
31299;BME280;17927;52.350;13.402;2023-05-03T04:01:01;102361.00;;;10.16;43.39
31299;BME280;17927;52.350;13.402;2023-05-03T04:03:27;102355.59;;;10.16;43.38
31299;BME280;17927;52.350;13.402;2023-05-03T04:05:52;102363.69;;;10.16;43.16
31299;BME280;17927;52.350;13.402;2023-05-03T04:08:17;102363.69;;;10.16;43.66
31299;BME280;17927;52.350;13.402;2023-05-03T04:10:43;102368.13;;;10.17;43.53
31299;BME280;17927;52.350;13.402;2023-05-03T04:13:08;102370.84;;;10.17;43.30
31299;BME280;17927;52.350;13.402;2023-05-03T04:15:33;102372.44;;;10.20;43.50
31299;BME280;17927;52.350;13.402;2023-05-03T04:17:58;102382.09;;;10.24;43.45
31299;BME280;17927;52.350;13.402;2023-05-03T04:20:24;102371.88;;;10.29;43.34
31299;BME280;17927;52.350;13.402;2023-05-03T04:22:49;102377.84;;;10.34;43.52
31299;BME280;17927;52.350;13.402;2023-05-03T04:25:14;102381.13;;;10.40;43.48
31299;BME280;17927;52.350;13.402;2023-05-03T04:27:41;102379.84;;;10.45;43.29
31299;BME280;17927;52.350;13.402;2023-05-03T04:30:07;102388.50;;;10.50;43.43
31299;BME280;17927;52.350;13.402;2023-05-03T04:32:32;102383.69;;;10.56;43.67
31299;BME280;17927;52.350;13.402;2023-05-03T04:35:08;102395.91;;;10.61;43.66
31299;BME280;17927;52.350;13.402;2023-05-03T04:37:38;102395.59;;;10.66;43.77
31299;BME280;17927;52.350;13.402;2023-05-03T04:40:05;102406.00;;;10.72;43.91
31299;BME280;17927;52.350;13.402;2023-05-03T04:42:36;102402.88;;;10.78;43.98
31299;BME280;17927;52.350;13.402;2023-05-03T04:45:02;102404.28;;;10.84;43.86
31299;BME280;17927;52.350;13.402;2023-05-03T04:47:28;102398.34;;;10.92;43.82
31299;BME280;17927;52.350;13.402;2023-05-03T04:49:53;102407.91;;;10.98;43.86
31299;BME280;17927;52.350;13.402;2023-05-03T04:52:18;102407.25;;;11.07;43.67
31299;BME280;17927;52.350;13.402;2023-05-03T04:54:43;102402.28;;;11.14;43.75
31299;BME280;17927;52.350;13.402;2023-05-03T04:57:09;102407.03;;;11.23;43.77
31299;BME280;17927;52.350;13.402;2023-05-03T04:59:35;102409.22;;;11.31;43.97
31299;BME280;17927;52.350;13.402;2023-05-03T05:02:00;102405.75;;;11.41;43.72
31299;BME280;17927;52.350;13.402;2023-05-03T05:04:25;102417.78;;;11.50;44.02
31299;BME280;17927;52.350;13.402;2023-05-03T05:06:52;102410.84;;;11.59;43.88
31299;BME280;17927;52.350;13.402;2023-05-03T05:09:22;102413.75;;;11.69;43.85
31299;BME280;17927;52.350;13.402;2023-05-03T05:11:48;102417.53;;;11.79;43.63
31299;BME280;17927;52.350;13.402;2023-05-03T05:14:13;102412.44;;;11.87;43.80
31299;BME280;17927;52.350;13.402;2023-05-03T05:16:38;102411.72;;;11.98;43.95
31299;BME280;17927;52.350;13.402;2023-05-03T05:19:04;102416.31;;;12.09;43.64
31299;BME280;17927;52.350;13.402;2023-05-03T05:21:29;102420.09;;;12.20;43.73
31299;BME280;17927;52.350;13.402;2023-05-03T05:23:55;102415.84;;;12.28;43.68
31299;BME280;17927;52.350;13.402;2023-05-03T05:26:21;102421.31;;;12.40;43.54
31299;BME280;17927;52.350;13.402;2023-05-03T05:28:46;102427.91;;;12.48;43.82
31299;BME280;17927;52.350;13.402;2023-05-03T05:31:12;102418.09;;;12.59;43.55
31299;BME280;17927;52.350;13.402;2023-05-03T05:33:37;102431.94;;;12.67;43.61
31299;BME280;17927;52.350;13.402;2023-05-03T05:36:03;102423.09;;;12.76;43.40
31299;BME280;17927;52.350;13.402;2023-05-03T05:38:28;102427.72;;;12.87;43.36
31299;BME280;17927;52.350;13.402;2023-05-03T05:40:54;102432.56;;;12.95;42.91
31299;BME280;17927;52.350;13.402;2023-05-03T05:43:19;102434.53;;;13.04;43.11
31299;BME280;17927;52.350;13.402;2023-05-03T05:45:45;102434.84;;;13.13;42.97
31299;BME280;17927;52.350;13.402;2023-05-03T05:48:10;102439.66;;;13.20;43.11
31299;BME280;17927;52.350;13.402;2023-05-03T05:50:35;102448.06;;;13.29;42.92
31299;BME280;17927;52.350;13.402;2023-05-03T05:53:01;102442.91;;;13.37;42.87
31299;BME280;17927;52.350;13.402;2023-05-03T05:55:26;102447.50;;;13.48;43.04
31299;BME280;17927;52.350;13.402;2023-05-03T05:57:51;102449.63;;;13.55;42.70
31299;BME280;17927;52.350;13.402;2023-05-03T06:00:17;102442.72;;;13.63;42.70
31299;BME280;17927;52.350;13.402;2023-05-03T06:02:43;102450.13;;;13.72;42.53
31299;BME280;17927;52.350;13.402;2023-05-03T06:05:09;102448.53;;;13.81;42.30
31299;BME280;17927;52.350;13.402;2023-05-03T06:07:35;102444.09;;;13.91;42.09
31299;BME280;17927;52.350;13.402;2023-05-03T06:10:01;102447.94;;;14.00;42.19
31299;BME280;17927;52.350;13.402;2023-05-03T06:12:26;102448.28;;;14.18;42.71
31299;BME280;17927;52.350;13.402;2023-05-03T06:14:51;102445.34;;;14.54;42.95
31299;BME280;17927;52.350;13.402;2023-05-03T06:17:16;102458.16;;;15.07;43.16
31299;BME280;17927;52.350;13.402;2023-05-03T06:19:42;102450.53;;;15.64;43.19
31299;BME280;17927;52.350;13.402;2023-05-03T06:22:07;102456.97;;;16.25;42.73
31299;BME280;17927;52.350;13.402;2023-05-03T06:24:32;102453.19;;;16.67;41.84
31299;BME280;17927;52.350;13.402;2023-05-03T06:26:57;102452.59;;;16.93;41.03
31299;BME280;17927;52.350;13.402;2023-05-03T06:29:24;102468.19;;;17.02;40.14
31299;BME280;17927;52.350;13.402;2023-05-03T06:31:50;102459.38;;;17.09;40.19
31299;BME280;17927;52.350;13.402;2023-05-03T06:34:17;102467.44;;;17.10;39.87
31299;BME280;17927;52.350;13.402;2023-05-03T06:36:44;102455.94;;;17.07;39.88
31299;BME280;17927;52.350;13.402;2023-05-03T06:39:09;102462.72;;;17.02;39.38
31299;BME280;17927;52.350;13.402;2023-05-03T06:41:35;102461.28;;;16.98;39.32
31299;BME280;17927;52.350;13.402;2023-05-03T06:44:00;102461.56;;;16.95;38.74
31299;BME280;17927;52.350;13.402;2023-05-03T06:46:26;102461.81;;;16.92;38.79
31299;BME280;17927;52.350;13.402;2023-05-03T06:48:52;102460.22;;;16.89;38.71
31299;BME280;17927;52.350;13.402;2023-05-03T06:51:21;102458.50;;;16.88;38.36
31299;BME280;17927;52.350;13.402;2023-05-03T06:53:51;102455.47;;;16.72;38.86
31299;BME280;17927;52.350;13.402;2023-05-03T06:56:16;102461.81;;;16.72;38.69
31299;BME280;17927;52.350;13.402;2023-05-03T06:58:41;102468.69;;;16.77;38.54
31299;BME280;17927;52.350;13.402;2023-05-03T07:01:07;102461.22;;;16.79;38.17
31299;BME280;17927;52.350;13.402;2023-05-03T07:03:32;102464.84;;;16.79;37.91
31299;BME280;17927;52.350;13.402;2023-05-03T07:05:58;102452.91;;;16.80;37.84
31299;BME280;17927;52.350;13.402;2023-05-03T07:08:23;102458.38;;;16.80;38.02
31299;BME280;17927;52.350;13.402;2023-05-03T07:10:48;102454.63;;;16.81;37.95
31299;BME280;17927;52.350;13.402;2023-05-03T07:13:14;102466.13;;;16.85;38.25
31299;BME280;17927;52.350;13.402;2023-05-03T07:15:39;102459.66;;;16.86;37.58
31299;BME280;17927;52.350;13.402;2023-05-03T07:18:04;102467.56;;;16.89;37.41
31299;BME280;17927;52.350;13.402;2023-05-03T07:20:30;102463.81;;;16.90;37.08
31299;BME280;17927;52.350;13.402;2023-05-03T07:22:55;102468.97;;;16.93;36.94
31299;BME280;17927;52.350;13.402;2023-05-03T07:25:21;102465.16;;;16.96;37.00
31299;BME280;17927;52.350;13.402;2023-05-03T07:27:46;102463.28;;;16.96;37.01
31299;BME280;17927;52.350;13.402;2023-05-03T07:30:12;102461.28;;;16.98;36.88
31299;BME280;17927;52.350;13.402;2023-05-03T07:32:37;102460.09;;;17.01;36.50
31299;BME280;17927;52.350;13.402;2023-05-03T07:35:03;102457.97;;;17.04;36.67
31299;BME280;17927;52.350;13.402;2023-05-03T07:37:28;102454.22;;;17.05;36.88
31299;BME280;17927;52.350;13.402;2023-05-03T07:39:54;102458.66;;;17.07;36.79
31299;BME280;17927;52.350;13.402;2023-05-03T07:42:19;102459.38;;;17.09;36.56
31299;BME280;17927;52.350;13.402;2023-05-03T07:44:44;102460.97;;;17.11;36.72
31299;BME280;17927;52.350;13.402;2023-05-03T07:47:09;102456.09;;;17.15;36.89
31299;BME280;17927;52.350;13.402;2023-05-03T07:49:38;102454.47;;;17.22;36.79
31299;BME280;17927;52.350;13.402;2023-05-03T07:52:03;102449.47;;;17.27;36.73
31299;BME280;17927;52.350;13.402;2023-05-03T07:54:28;102452.75;;;17.31;36.42
31299;BME280;17927;52.350;13.402;2023-05-03T07:56:53;102457.91;;;17.34;36.62
31299;BME280;17927;52.350;13.402;2023-05-03T07:59:19;102453.03;;;17.38;36.31
31299;BME280;17927;52.350;13.402;2023-05-03T08:01:44;102451.59;;;17.43;36.35
31299;BME280;17927;52.350;13.402;2023-05-03T08:04:09;102454.00;;;17.46;36.18
31299;BME280;17927;52.350;13.402;2023-05-03T08:06:35;102454.59;;;17.50;36.37
31299;BME280;17927;52.350;13.402;2023-05-03T08:09:02;102456.00;;;17.54;35.90
31299;BME280;17927;52.350;13.402;2023-05-03T08:11:28;102452.84;;;17.59;35.75
31299;BME280;17927;52.350;13.402;2023-05-03T08:13:54;102461.91;;;17.59;35.80
31299;BME280;17927;52.350;13.402;2023-05-03T08:16:19;102443.94;;;17.57;35.51
31299;BME280;17927;52.350;13.402;2023-05-03T08:18:45;102447.50;;;17.57;35.87
31299;BME280;17927;52.350;13.402;2023-05-03T08:21:11;102451.81;;;17.60;35.88
31299;BME280;17927;52.350;13.402;2023-05-03T08:23:37;102459.44;;;17.66;35.95
31299;BME280;17927;52.350;13.402;2023-05-03T08:26:04;102449.63;;;17.73;35.88
31299;BME280;17927;52.350;13.402;2023-05-03T08:28:31;102448.31;;;17.77;35.48
31299;BME280;17927;52.350;13.402;2023-05-03T08:30:56;102443.44;;;17.81;35.37
31299;BME280;17927;52.350;13.402;2023-05-03T08:33:22;102445.84;;;17.84;35.42
31299;BME280;17927;52.350;13.402;2023-05-03T08:35:47;102448.13;;;17.89;35.67
31299;BME280;17927;52.350;13.402;2023-05-03T08:38:12;102453.28;;;17.92;35.62
31299;BME280;17927;52.350;13.402;2023-05-03T08:40:38;102446.97;;;17.91;35.33
31299;BME280;17927;52.350;13.402;2023-05-03T08:43:06;102449.53;;;17.93;34.88
31299;BME280;17927;52.350;13.402;2023-05-03T08:45:33;102448.53;;;17.94;35.06
31299;BME280;17927;52.350;13.402;2023-05-03T08:47:58;102448.22;;;17.97;35.15
31299;BME280;17927;52.350;13.402;2023-05-03T08:50:26;102456.72;;;17.94;34.76
31299;BME280;17927;52.350;13.402;2023-05-03T08:52:51;102449.69;;;17.91;34.56
31299;BME280;17927;52.350;13.402;2023-05-03T08:55:17;102462.22;;;17.84;34.29
31299;BME280;17927;52.350;13.402;2023-05-03T08:57:43;102460.50;;;17.83;34.50
31299;BME280;17927;52.350;13.402;2023-05-03T09:00:08;102463.13;;;17.85;34.78
31299;BME280;17927;52.350;13.402;2023-05-03T09:02:35;102456.34;;;17.89;34.69
31299;BME280;17927;52.350;13.402;2023-05-03T09:05:05;102456.59;;;17.95;34.66
31299;BME280;17927;52.350;13.402;2023-05-03T09:07:31;102461.66;;;18.00;34.33
31299;BME280;17927;52.350;13.402;2023-05-03T09:09:56;102459.91;;;17.99;34.20
31299;BME280;17927;52.350;13.402;2023-05-03T09:12:36;102459.47;;;18.04;34.45
31299;BME280;17927;52.350;13.402;2023-05-03T09:15:05;102458.44;;;18.05;34.40
31299;BME280;17927;52.350;13.402;2023-05-03T09:17:31;102459.16;;;18.07;34.80
31299;BME280;17927;52.350;13.402;2023-05-03T09:19:57;102467.06;;;18.10;34.46
31299;BME280;17927;52.350;13.402;2023-05-03T09:22:26;102469.63;;;18.11;33.83
31299;BME280;17927;52.350;13.402;2023-05-03T09:24:58;102471.13;;;18.06;33.95
31299;BME280;17927;52.350;13.402;2023-05-03T09:27:25;102464.63;;;18.07;34.55
31299;BME280;17927;52.350;13.402;2023-05-03T09:29:51;102461.59;;;18.10;34.11
31299;BME280;17927;52.350;13.402;2023-05-03T09:32:17;102474.25;;;18.11;33.87
31299;BME280;17927;52.350;13.402;2023-05-03T09:34:43;102469.50;;;18.13;33.95
31299;BME280;17927;52.350;13.402;2023-05-03T09:37:09;102463.72;;;18.16;33.92
31299;BME280;17927;52.350;13.402;2023-05-03T09:39:34;102462.56;;;18.19;33.89
31299;BME280;17927;52.350;13.402;2023-05-03T09:42:14;102463.81;;;18.24;33.64
31299;BME280;17927;52.350;13.402;2023-05-03T09:44:45;102461.63;;;18.28;33.92
31299;BME280;17927;52.350;13.402;2023-05-03T09:47:18;102451.56;;;18.29;33.61
31299;BME280;17927;52.350;13.402;2023-05-03T09:49:44;102449.69;;;18.29;33.18
31299;BME280;17927;52.350;13.402;2023-05-03T09:52:09;102450.53;;;18.30;33.19
31299;BME280;17927;52.350;13.402;2023-05-03T09:54:36;102445.78;;;18.32;33.54
31299;BME280;17927;52.350;13.402;2023-05-03T09:57:03;102447.03;;;18.37;33.94
31299;BME280;17927;52.350;13.402;2023-05-03T09:59:37;102441.25;;;18.40;33.42
31299;BME280;17927;52.350;13.402;2023-05-03T10:02:04;102441.84;;;18.44;33.53
31299;BME280;17927;52.350;13.402;2023-05-03T10:04:44;102437.75;;;18.48;33.57
31299;BME280;17927;52.350;13.402;2023-05-03T10:07:13;102438.47;;;18.50;33.71
31299;BME280;17927;52.350;13.402;2023-05-03T10:09:43;102445.66;;;18.51;33.09
31299;BME280;17927;52.350;13.402;2023-05-03T10:12:10;102439.34;;;18.51;33.03
31299;BME280;17927;52.350;13.402;2023-05-03T10:14:39;102434.72;;;18.51;33.27
31299;BME280;17927;52.350;13.402;2023-05-03T10:17:08;102439.16;;;18.52;33.50
31299;BME280;17927;52.350;13.402;2023-05-03T10:19:45;102442.44;;;18.56;33.34
31299;BME280;17927;52.350;13.402;2023-05-03T10:22:11;102434.09;;;18.58;33.26
31299;BME280;17927;52.350;13.402;2023-05-03T10:30:30;102440.97;;;18.62;34.06
31299;BME280;17927;52.350;13.402;2023-05-03T10:32:57;102440.66;;;18.65;34.10
31299;BME280;17927;52.350;13.402;2023-05-03T10:35:27;102433.00;;;18.68;33.58
31299;BME280;17927;52.350;13.402;2023-05-03T10:37:54;102435.75;;;18.68;33.80
31299;BME280;17927;52.350;13.402;2023-05-03T10:40:21;102436.13;;;18.74;33.79
31299;BME280;17927;52.350;13.402;2023-05-03T10:42:55;102437.38;;;18.79;33.82
31299;BME280;17927;52.350;13.402;2023-05-03T10:45:25;102434.97;;;18.76;33.91
31299;BME280;17927;52.350;13.402;2023-05-03T10:50:36;102427.59;;;18.77;33.80
31299;BME280;17927;52.350;13.402;2023-05-03T10:53:01;102430.03;;;18.80;33.73
31299;BME280;17927;52.350;13.402;2023-05-03T10:55:27;102423.06;;;18.85;33.93
31299;BME280;17927;52.350;13.402;2023-05-03T10:57:55;102416.97;;;18.92;33.77
31299;BME280;17927;52.350;13.402;2023-05-03T11:00:30;102421.81;;;18.98;33.57
31299;BME280;17927;52.350;13.402;2023-05-03T11:05:53;102421.25;;;19.12;34.16
31299;BME280;17927;52.350;13.402;2023-05-03T11:08:21;102415.69;;;19.22;33.69
31299;BME280;17927;52.350;13.402;2023-05-03T11:10:56;102424.81;;;19.31;33.64
31299;BME280;17927;52.350;13.402;2023-05-03T11:13:21;102421.09;;;19.40;33.85
31299;BME280;17927;52.350;13.402;2023-05-03T11:15:46;102421.31;;;19.47;33.46
31299;BME280;17927;52.350;13.402;2023-05-03T11:18:12;102413.16;;;19.55;33.18
31299;BME280;17927;52.350;13.402;2023-05-03T11:20:37;102414.00;;;19.56;32.95
31299;BME280;17927;52.350;13.402;2023-05-03T11:23:04;102415.72;;;19.57;32.48
31299;BME280;17927;52.350;13.402;2023-05-03T11:25:30;102411.13;;;19.57;32.63
31299;BME280;17927;52.350;13.402;2023-05-03T11:27:58;102407.19;;;19.60;33.10
31299;BME280;17927;52.350;13.402;2023-05-03T11:30:23;102406.53;;;19.66;33.11
31299;BME280;17927;52.350;13.402;2023-05-03T11:32:48;102414.09;;;19.72;32.92
31299;BME280;17927;52.350;13.402;2023-05-03T11:35:15;102400.59;;;19.79;32.88
31299;BME280;17927;52.350;13.402;2023-05-03T11:37:42;102403.00;;;19.82;32.57
31299;BME280;17927;52.350;13.402;2023-05-03T11:40:17;102399.09;;;19.85;32.53
31299;BME280;17927;52.350;13.402;2023-05-03T11:42:55;102408.72;;;19.89;32.71
31299;BME280;17927;52.350;13.402;2023-05-03T11:45:25;102400.66;;;19.87;32.39
31299;BME280;17927;52.350;13.402;2023-05-03T11:47:51;102394.47;;;19.85;32.11
31299;BME280;17927;52.350;13.402;2023-05-03T11:50:18;102398.41;;;19.83;32.29
31299;BME280;17927;52.350;13.402;2023-05-03T11:52:44;102397.53;;;19.82;31.79
31299;BME280;17927;52.350;13.402;2023-05-03T11:55:10;102392.22;;;19.81;31.85
31299;BME280;17927;52.350;13.402;2023-05-03T11:57:36;102392.03;;;19.82;31.87
31299;BME280;17927;52.350;13.402;2023-05-03T12:00:12;102385.38;;;19.85;32.19
31299;BME280;17927;52.350;13.402;2023-05-03T12:02:39;102385.94;;;19.88;32.47
31299;BME280;17927;52.350;13.402;2023-05-03T12:05:05;102379.44;;;19.98;32.18
31299;BME280;17927;52.350;13.402;2023-05-03T12:07:31;102395.13;;;20.14;32.98
31299;BME280;17927;52.350;13.402;2023-05-03T12:09:56;102384.84;;;20.24;33.04
31299;BME280;17927;52.350;13.402;2023-05-03T12:12:22;102392.41;;;20.38;33.40
31299;BME280;17927;52.350;13.402;2023-05-03T12:14:58;102388.66;;;20.56;32.84
31299;BME280;17927;52.350;13.402;2023-05-03T12:17:37;102375.34;;;20.78;32.61
31299;BME280;17927;52.350;13.402;2023-05-03T12:20:19;102383.56;;;21.03;32.91
31299;BME280;17927;52.350;13.402;2023-05-03T12:22:55;102390.22;;;21.33;32.88
31299;BME280;17927;52.350;13.402;2023-05-03T12:25:21;102385.38;;;21.60;32.78
31299;BME280;17927;52.350;13.402;2023-05-03T12:27:47;102376.28;;;21.91;32.52
31299;BME280;17927;52.350;13.402;2023-05-03T12:30:13;102378.66;;;22.26;32.44
31299;BME280;17927;52.350;13.402;2023-05-03T12:32:38;102368.41;;;22.66;32.71
31299;BME280;17927;52.350;13.402;2023-05-03T12:35:04;102370.25;;;23.12;32.30
31299;BME280;17927;52.350;13.402;2023-05-03T12:37:30;102373.72;;;23.59;32.70
31299;BME280;17927;52.350;13.402;2023-05-03T12:39:55;102362.94;;;24.09;31.97
31299;BME280;17927;52.350;13.402;2023-05-03T12:42:21;102359.16;;;24.54;31.30
31299;BME280;17927;52.350;13.402;2023-05-03T12:44:46;102367.22;;;24.99;30.35
31299;BME280;17927;52.350;13.402;2023-05-03T12:47:11;102372.44;;;25.44;30.21
31299;BME280;17927;52.350;13.402;2023-05-03T12:49:37;102373.75;;;25.90;30.27
31299;BME280;17927;52.350;13.402;2023-05-03T12:52:02;102361.97;;;26.36;29.42
31299;BME280;17927;52.350;13.402;2023-05-03T12:54:27;102371.84;;;26.79;28.10